sensor_id;sensor_type;location;lat;lon;timestamp;temperature;humidity
15131;DHT22;7666;50.920;4.628;2023-02-21T00:01:25;8.20;99.90
15131;DHT22;7666;50.920;4.628;2023-02-21T00:04:30;8.20;99.90
15131;DHT22;7666;50.920;4.628;2023-02-21T00:07:34;8.20;99.90
15131;DHT22;7666;50.920;4.628;2023-02-21T00:10:38;8.10;99.90
15131;DHT22;7666;50.920;4.628;2023-02-21T00:13:43;8.10;99.90
15131;DHT22;7666;50.920;4.628;2023-02-21T00:16:47;8.10;99.90
15131;DHT22;7666;50.920;4.628;2023-02-21T00:19:52;8.10;99.90
15131;DHT22;7666;50.920;4.628;2023-02-21T00:22:56;8.10;99.90
15131;DHT22;7666;50.920;4.628;2023-02-21T00:26:00;8.10;99.90
15131;DHT22;7666;50.920;4.628;2023-02-21T00:29:05;8.00;99.90
15131;DHT22;7666;50.920;4.628;2023-02-21T00:32:10;8.00;99.90
15131;DHT22;7666;50.920;4.628;2023-02-21T00:35:15;8.00;99.90
15131;DHT22;7666;50.920;4.628;2023-02-21T00:38:19;8.00;99.90
15131;DHT22;7666;50.920;4.628;2023-02-21T00:41:24;8.00;99.90
15131;DHT22;7666;50.920;4.628;2023-02-21T00:44:28;8.10;99.90
15131;DHT22;7666;50.920;4.628;2023-02-21T00:47:33;8.10;99.90
15131;DHT22;7666;50.920;4.628;2023-02-21T00:50:37;8.10;99.90
15131;DHT22;7666;50.920;4.628;2023-02-21T00:53:42;8.10;99.90
15131;DHT22;7666;50.920;4.628;2023-02-21T00:56:46;8.10;99.90
15131;DHT22;7666;50.920;4.628;2023-02-21T00:59:51;8.10;99.90
15131;DHT22;7666;50.920;4.628;2023-02-21T01:02:56;8.00;99.90
15131;DHT22;7666;50.920;4.628;2023-02-21T01:06:00;8.10;99.90
15131;DHT22;7666;50.920;4.628;2023-02-21T01:09:04;8.10;99.90
15131;DHT22;7666;50.920;4.628;2023-02-21T01:12:08;8.10;99.90
15131;DHT22;7666;50.920;4.628;2023-02-21T01:15:14;8.10;99.90
15131;DHT22;7666;50.920;4.628;2023-02-21T01:18:19;8.00;99.90
15131;DHT22;7666;50.920;4.628;2023-02-21T01:21:23;8.00;99.90
15131;DHT22;7666;50.920;4.628;2023-02-21T01:24:27;8.00;99.90
15131;DHT22;7666;50.920;4.628;2023-02-21T01:27:32;8.00;99.90
15131;DHT22;7666;50.920;4.628;2023-02-21T01:30:36;8.00;99.90
15131;DHT22;7666;50.920;4.628;2023-02-21T01:33:41;8.00;99.90
15131;DHT22;7666;50.920;4.628;2023-02-21T01:36:45;7.90;99.90
15131;DHT22;7666;50.920;4.628;2023-02-21T01:39:50;7.80;99.90
15131;DHT22;7666;50.920;4.628;2023-02-21T01:42:54;7.80;99.90
15131;DHT22;7666;50.920;4.628;2023-02-21T01:45:59;7.80;99.90
15131;DHT22;7666;50.920;4.628;2023-02-21T01:49:10;7.80;99.90
15131;DHT22;7666;50.920;4.628;2023-02-21T01:52:17;7.70;99.90
15131;DHT22;7666;50.920;4.628;2023-02-21T01:55:21;7.70;99.90
15131;DHT22;7666;50.920;4.628;2023-02-21T01:58:28;7.70;99.90
15131;DHT22;7666;50.920;4.628;2023-02-21T02:01:59;7.70;99.90
15131;DHT22;7666;50.920;4.628;2023-02-21T02:05:08;7.70;99.90
15131;DHT22;7666;50.920;4.628;2023-02-21T02:08:13;7.70;99.90
15131;DHT22;7666;50.920;4.628;2023-02-21T02:15:05;7.70;99.90
15131;DHT22;7666;50.920;4.628;2023-02-21T02:27:54;7.70;99.90
15131;DHT22;7666;50.920;4.628;2023-02-21T02:38:00;7.70;99.90
15131;DHT22;7666;50.920;4.628;2023-02-21T02:41:03;7.60;99.90
15131;DHT22;7666;50.920;4.628;2023-02-21T02:43:54;7.60;99.90
15131;DHT22;7666;50.920;4.628;2023-02-21T02:46:47;7.60;99.90
15131;DHT22;7666;50.920;4.628;2023-02-21T02:49:37;7.50;99.90
15131;DHT22;7666;50.920;4.628;2023-02-21T02:52:24;7.50;99.90
15131;DHT22;7666;50.920;4.628;2023-02-21T02:55:50;7.50;99.90
15131;DHT22;7666;50.920;4.628;2023-02-21T02:58:41;7.50;99.90
15131;DHT22;7666;50.920;4.628;2023-02-21T03:04:44;7.50;99.90
15131;DHT22;7666;50.920;4.628;2023-02-21T03:08:03;7.60;99.90
15131;DHT22;7666;50.920;4.628;2023-02-21T03:13:55;7.50;99.90
15131;DHT22;7666;50.920;4.628;2023-02-21T03:16:47;7.50;99.90
15131;DHT22;7666;50.920;4.628;2023-02-21T03:19:38;7.50;99.90
15131;DHT22;7666;50.920;4.628;2023-02-21T03:22:26;7.60;99.90
15131;DHT22;7666;50.920;4.628;2023-02-21T03:25:16;7.60;99.90
15131;DHT22;7666;50.920;4.628;2023-02-21T03:28:03;7.50;99.90
15131;DHT22;7666;50.920;4.628;2023-02-21T03:30:52;7.60;99.90
15131;DHT22;7666;50.920;4.628;2023-02-21T03:33:38;7.60;99.90
15131;DHT22;7666;50.920;4.628;2023-02-21T03:36:26;7.60;99.90
15131;DHT22;7666;50.920;4.628;2023-02-21T03:39:12;7.60;99.90
15131;DHT22;7666;50.920;4.628;2023-02-21T03:41:58;7.60;99.90
15131;DHT22;7666;50.920;4.628;2023-02-21T03:44:44;7.60;99.90
15131;DHT22;7666;50.920;4.628;2023-02-21T03:47:30;7.60;99.90
15131;DHT22;7666;50.920;4.628;2023-02-21T03:50:16;7.60;99.90
15131;DHT22;7666;50.920;4.628;2023-02-21T03:53:03;7.60;99.90
15131;DHT22;7666;50.920;4.628;2023-02-21T03:55:49;7.60;99.90
15131;DHT22;7666;50.920;4.628;2023-02-21T03:58:35;7.60;99.90
15131;DHT22;7666;50.920;4.628;2023-02-21T04:01:21;7.60;99.90
15131;DHT22;7666;50.920;4.628;2023-02-21T04:04:07;7.60;99.90
15131;DHT22;7666;50.920;4.628;2023-02-21T04:06:53;7.60;99.90
15131;DHT22;7666;50.920;4.628;2023-02-21T04:09:38;7.60;99.90
15131;DHT22;7666;50.920;4.628;2023-02-21T04:12:25;7.60;99.90
15131;DHT22;7666;50.920;4.628;2023-02-21T04:15:11;7.60;99.90
15131;DHT22;7666;50.920;4.628;2023-02-21T04:17:57;7.50;99.90
15131;DHT22;7666;50.920;4.628;2023-02-21T04:20:43;7.50;99.90
15131;DHT22;7666;50.920;4.628;2023-02-21T04:23:30;7.50;99.90
15131;DHT22;7666;50.920;4.628;2023-02-21T04:26:17;7.50;99.90
15131;DHT22;7666;50.920;4.628;2023-02-21T04:29:03;7.50;99.90
15131;DHT22;7666;50.920;4.628;2023-02-21T04:31:49;7.50;99.90
15131;DHT22;7666;50.920;4.628;2023-02-21T04:34:35;7.50;99.90
15131;DHT22;7666;50.920;4.628;2023-02-21T04:37:21;7.50;99.90
15131;DHT22;7666;50.920;4.628;2023-02-21T04:40:07;7.50;99.90
15131;DHT22;7666;50.920;4.628;2023-02-21T04:42:53;7.50;99.90
15131;DHT22;7666;50.920;4.628;2023-02-21T04:45:39;7.50;99.90
15131;DHT22;7666;50.920;4.628;2023-02-21T04:48:25;7.50;99.90
15131;DHT22;7666;50.920;4.628;2023-02-21T04:51:12;7.50;99.90
15131;DHT22;7666;50.920;4.628;2023-02-21T04:53:58;7.50;99.90
15131;DHT22;7666;50.920;4.628;2023-02-21T04:56:44;7.50;99.90
15131;DHT22;7666;50.920;4.628;2023-02-21T04:59:30;7.50;99.90
15131;DHT22;7666;50.920;4.628;2023-02-21T05:02:16;7.50;99.90
15131;DHT22;7666;50.920;4.628;2023-02-21T05:05:02;7.50;99.90
15131;DHT22;7666;50.920;4.628;2023-02-21T05:07:48;7.50;99.90
15131;DHT22;7666;50.920;4.628;2023-02-21T05:10:34;7.50;99.90
15131;DHT22;7666;50.920;4.628;2023-02-21T05:13:20;7.50;99.90
15131;DHT22;7666;50.920;4.628;2023-02-21T05:16:07;7.50;99.90
15131;DHT22;7666;50.920;4.628;2023-02-21T05:18:53;7.50;99.90
15131;DHT22;7666;50.920;4.628;2023-02-21T05:21:39;7.40;99.90
15131;DHT22;7666;50.920;4.628;2023-02-21T05:24:27;7.40;99.90
15131;DHT22;7666;50.920;4.628;2023-02-21T05:27:17;7.40;99.90
15131;DHT22;7666;50.920;4.628;2023-02-21T05:30:03;7.40;99.90
15131;DHT22;7666;50.920;4.628;2023-02-21T05:32:50;7.40;99.90
15131;DHT22;7666;50.920;4.628;2023-02-21T05:35:36;7.40;99.90
15131;DHT22;7666;50.920;4.628;2023-02-21T05:38:23;7.40;99.90
15131;DHT22;7666;50.920;4.628;2023-02-21T05:41:09;7.40;99.90
15131;DHT22;7666;50.920;4.628;2023-02-21T05:43:55;7.40;99.90
15131;DHT22;7666;50.920;4.628;2023-02-21T05:46:41;7.40;99.90
15131;DHT22;7666;50.920;4.628;2023-02-21T05:49:27;7.40;99.90
15131;DHT22;7666;50.920;4.628;2023-02-21T05:52:15;7.40;99.90
15131;DHT22;7666;50.920;4.628;2023-02-21T05:55:02;7.30;99.90
15131;DHT22;7666;50.920;4.628;2023-02-21T05:57:48;7.30;99.90
15131;DHT22;7666;50.920;4.628;2023-02-21T06:00:34;7.30;99.90
15131;DHT22;7666;50.920;4.628;2023-02-21T06:03:20;7.30;99.90
15131;DHT22;7666;50.920;4.628;2023-02-21T06:06:06;7.30;99.90
15131;DHT22;7666;50.920;4.628;2023-02-21T06:08:52;7.30;99.90
15131;DHT22;7666;50.920;4.628;2023-02-21T06:11:38;7.30;99.90
15131;DHT22;7666;50.920;4.628;2023-02-21T06:14:25;7.30;99.90
15131;DHT22;7666;50.920;4.628;2023-02-21T06:17:11;7.30;99.90
15131;DHT22;7666;50.920;4.628;2023-02-21T06:19:57;7.20;99.90
15131;DHT22;7666;50.920;4.628;2023-02-21T06:22:43;7.20;99.90
15131;DHT22;7666;50.920;4.628;2023-02-21T06:25:30;7.10;99.90
15131;DHT22;7666;50.920;4.628;2023-02-21T06:28:15;7.10;99.90
15131;DHT22;7666;50.920;4.628;2023-02-21T06:31:03;7.20;99.90
15131;DHT22;7666;50.920;4.628;2023-02-21T06:33:49;7.10;99.90
15131;DHT22;7666;50.920;4.628;2023-02-21T06:36:35;7.10;99.90
15131;DHT22;7666;50.920;4.628;2023-02-21T06:39:23;7.10;99.90
15131;DHT22;7666;50.920;4.628;2023-02-21T06:42:14;7.10;99.90
15131;DHT22;7666;50.920;4.628;2023-02-21T06:45:00;7.10;99.90
15131;DHT22;7666;50.920;4.628;2023-02-21T06:47:46;7.10;99.90
15131;DHT22;7666;50.920;4.628;2023-02-21T06:50:32;7.10;99.90
15131;DHT22;7666;50.920;4.628;2023-02-21T06:53:18;7.10;99.90
15131;DHT22;7666;50.920;4.628;2023-02-21T06:56:05;7.10;99.90
15131;DHT22;7666;50.920;4.628;2023-02-21T06:58:52;7.10;99.90
15131;DHT22;7666;50.920;4.628;2023-02-21T07:01:38;7.10;99.90
15131;DHT22;7666;50.920;4.628;2023-02-21T07:04:24;7.10;99.90
15131;DHT22;7666;50.920;4.628;2023-02-21T07:07:10;7.10;99.90
15131;DHT22;7666;50.920;4.628;2023-02-21T07:09:56;7.10;99.90
15131;DHT22;7666;50.920;4.628;2023-02-21T07:12:42;7.10;99.90
15131;DHT22;7666;50.920;4.628;2023-02-21T07:15:28;7.10;99.90
15131;DHT22;7666;50.920;4.628;2023-02-21T07:18:14;7.10;99.90
15131;DHT22;7666;50.920;4.628;2023-02-21T07:21:00;7.10;99.90
15131;DHT22;7666;50.920;4.628;2023-02-21T07:23:47;7.10;99.90
15131;DHT22;7666;50.920;4.628;2023-02-21T07:26:33;7.10;99.90
15131;DHT22;7666;50.920;4.628;2023-02-21T07:29:22;7.10;99.90
15131;DHT22;7666;50.920;4.628;2023-02-21T07:32:08;7.10;99.90
15131;DHT22;7666;50.920;4.628;2023-02-21T07:34:54;7.10;99.90
15131;DHT22;7666;50.920;4.628;2023-02-21T07:37:40;7.10;99.90
15131;DHT22;7666;50.920;4.628;2023-02-21T07:40:26;7.20;99.90
15131;DHT22;7666;50.920;4.628;2023-02-21T07:43:12;7.10;99.90
15131;DHT22;7666;50.920;4.628;2023-02-21T07:45:58;7.20;99.90
15131;DHT22;7666;50.920;4.628;2023-02-21T07:48:44;7.20;99.90
15131;DHT22;7666;50.920;4.628;2023-02-21T07:51:30;7.20;99.90
15131;DHT22;7666;50.920;4.628;2023-02-21T07:54:17;7.20;99.90
15131;DHT22;7666;50.920;4.628;2023-02-21T07:57:03;7.20;99.90
15131;DHT22;7666;50.920;4.628;2023-02-21T07:59:49;7.30;99.90
15131;DHT22;7666;50.920;4.628;2023-02-21T08:02:35;7.40;99.90
15131;DHT22;7666;50.920;4.628;2023-02-21T08:05:22;7.40;99.90
15131;DHT22;7666;50.920;4.628;2023-02-21T08:08:09;7.40;99.90
15131;DHT22;7666;50.920;4.628;2023-02-21T08:10:55;7.40;99.90
15131;DHT22;7666;50.920;4.628;2023-02-21T08:13:41;7.50;99.90
15131;DHT22;7666;50.920;4.628;2023-02-21T08:16:27;7.50;99.90
15131;DHT22;7666;50.920;4.628;2023-02-21T08:19:13;7.50;99.90
15131;DHT22;7666;50.920;4.628;2023-02-21T08:21:59;7.50;99.90
15131;DHT22;7666;50.920;4.628;2023-02-21T08:24:47;7.50;99.90
15131;DHT22;7666;50.920;4.628;2023-02-21T08:27:33;7.50;99.90
15131;DHT22;7666;50.920;4.628;2023-02-21T08:30:19;7.50;99.90
15131;DHT22;7666;50.920;4.628;2023-02-21T08:33:06;7.50;99.90
15131;DHT22;7666;50.920;4.628;2023-02-21T08:35:52;7.50;99.90
15131;DHT22;7666;50.920;4.628;2023-02-21T08:38:38;7.50;99.90
15131;DHT22;7666;50.920;4.628;2023-02-21T08:41:24;7.50;99.90
15131;DHT22;7666;50.920;4.628;2023-02-21T08:44:12;7.50;99.90
15131;DHT22;7666;50.920;4.628;2023-02-21T08:47:00;7.60;99.90
15131;DHT22;7666;50.920;4.628;2023-02-21T08:49:47;7.60;99.90
15131;DHT22;7666;50.920;4.628;2023-02-21T08:52:33;7.70;99.90
15131;DHT22;7666;50.920;4.628;2023-02-21T08:55:20;7.70;99.90
15131;DHT22;7666;50.920;4.628;2023-02-21T08:58:06;7.70;99.90
15131;DHT22;7666;50.920;4.628;2023-02-21T09:00:52;7.70;99.90
15131;DHT22;7666;50.920;4.628;2023-02-21T09:03:38;7.70;99.90
15131;DHT22;7666;50.920;4.628;2023-02-21T09:06:24;7.70;99.90
15131;DHT22;7666;50.920;4.628;2023-02-21T09:09:10;7.70;99.90
15131;DHT22;7666;50.920;4.628;2023-02-21T09:11:56;7.60;99.90
15131;DHT22;7666;50.920;4.628;2023-02-21T09:14:42;7.60;99.90
15131;DHT22;7666;50.920;4.628;2023-02-21T09:17:29;7.70;99.90
15131;DHT22;7666;50.920;4.628;2023-02-21T09:20:22;7.70;99.90
15131;DHT22;7666;50.920;4.628;2023-02-21T09:23:09;7.80;99.90
15131;DHT22;7666;50.920;4.628;2023-02-21T09:25:55;7.80;99.90
15131;DHT22;7666;50.920;4.628;2023-02-21T09:28:41;7.90;99.90
15131;DHT22;7666;50.920;4.628;2023-02-21T09:31:28;8.00;99.90
15131;DHT22;7666;50.920;4.628;2023-02-21T09:34:14;8.00;99.90
15131;DHT22;7666;50.920;4.628;2023-02-21T09:37:04;8.00;99.90
15131;DHT22;7666;50.920;4.628;2023-02-21T09:39:50;8.00;99.90
15131;DHT22;7666;50.920;4.628;2023-02-21T09:42:36;8.10;99.90
15131;DHT22;7666;50.920;4.628;2023-02-21T09:45:30;8.20;99.90
15131;DHT22;7666;50.920;4.628;2023-02-21T09:48:19;8.20;99.90
15131;DHT22;7666;50.920;4.628;2023-02-21T09:51:08;8.20;99.90
15131;DHT22;7666;50.920;4.628;2023-02-21T09:53:57;8.10;99.90
15131;DHT22;7666;50.920;4.628;2023-02-21T09:56:43;8.10;99.90
15131;DHT22;7666;50.920;4.628;2023-02-21T09:59:30;8.20;99.90
15131;DHT22;7666;50.920;4.628;2023-02-21T10:02:47;8.20;99.90
15131;DHT22;7666;50.920;4.628;2023-02-21T10:05:50;8.20;99.90
15131;DHT22;7666;50.920;4.628;2023-02-21T10:08:58;8.20;99.90
15131;DHT22;7666;50.920;4.628;2023-02-21T10:20:57;8.30;99.90
15131;DHT22;7666;50.920;4.628;2023-02-21T10:23:49;8.30;99.90
15131;DHT22;7666;50.920;4.628;2023-02-21T10:26:37;8.40;99.90
15131;DHT22;7666;50.920;4.628;2023-02-21T10:29:51;8.40;99.90
15131;DHT22;7666;50.920;4.628;2023-02-21T10:32:40;8.50;99.90
15131;DHT22;7666;50.920;4.628;2023-02-21T10:35:26;8.50;99.90
15131;DHT22;7666;50.920;4.628;2023-02-21T10:38:18;8.50;99.90
15131;DHT22;7666;50.920;4.628;2023-02-21T10:41:06;8.50;99.90
15131;DHT22;7666;50.920;4.628;2023-02-21T10:43:58;8.50;99.90
15131;DHT22;7666;50.920;4.628;2023-02-21T10:46:57;8.50;99.90
15131;DHT22;7666;50.920;4.628;2023-02-21T10:50:07;8.40;99.90
15131;DHT22;7666;50.920;4.628;2023-02-21T10:52:53;8.40;99.90
15131;DHT22;7666;50.920;4.628;2023-02-21T10:55:39;8.40;99.90
15131;DHT22;7666;50.920;4.628;2023-02-21T10:58:26;8.40;99.90
15131;DHT22;7666;50.920;4.628;2023-02-21T11:01:16;8.40;99.90
15131;DHT22;7666;50.920;4.628;2023-02-21T11:04:24;8.40;99.90
15131;DHT22;7666;50.920;4.628;2023-02-21T11:07:12;8.40;99.90
15131;DHT22;7666;50.920;4.628;2023-02-21T11:10:00;8.40;99.90
15131;DHT22;7666;50.920;4.628;2023-02-21T11:13:10;8.50;99.90
15131;DHT22;7666;50.920;4.628;2023-02-21T11:16:30;8.40;99.90
15131;DHT22;7666;50.920;4.628;2023-02-21T11:19:19;8.40;99.90
15131;DHT22;7666;50.920;4.628;2023-02-21T11:22:05;8.40;99.90
15131;DHT22;7666;50.920;4.628;2023-02-21T11:25:02;8.40;99.90
15131;DHT22;7666;50.920;4.628;2023-02-21T11:33:58;8.30;99.90
15131;DHT22;7666;50.920;4.628;2023-02-21T11:36:46;8.30;99.90
15131;DHT22;7666;50.920;4.628;2023-02-21T11:39:34;8.40;99.90
15131;DHT22;7666;50.920;4.628;2023-02-21T11:42:32;8.40;99.90
15131;DHT22;7666;50.920;4.628;2023-02-21T11:45:23;8.40;99.90
15131;DHT22;7666;50.920;4.628;2023-02-21T11:48:15;8.50;99.90
15131;DHT22;7666;50.920;4.628;2023-02-21T11:51:07;8.50;99.90
15131;DHT22;7666;50.920;4.628;2023-02-21T11:53:58;8.60;99.90
15131;DHT22;7666;50.920;4.628;2023-02-21T11:57:00;8.60;99.90
15131;DHT22;7666;50.920;4.628;2023-02-21T12:06:52;8.60;99.90
15131;DHT22;7666;50.920;4.628;2023-02-21T12:09:58;8.60;99.90
15131;DHT22;7666;50.920;4.628;2023-02-21T12:13:17;8.60;99.90
15131;DHT22;7666;50.920;4.628;2023-02-21T12:22:51;8.60;99.90
15131;DHT22;7666;50.920;4.628;2023-02-21T12:29:12;8.70;99.90
15131;DHT22;7666;50.920;4.628;2023-02-21T12:32:15;8.70;99.90
15131;DHT22;7666;50.920;4.628;2023-02-21T12:38:28;8.80;99.90
15131;DHT22;7666;50.920;4.628;2023-02-21T12:44:21;8.90;99.90
15131;DHT22;7666;50.920;4.628;2023-02-21T12:47:23;8.90;99.90
15131;DHT22;7666;50.920;4.628;2023-02-21T12:50:21;8.90;99.90
15131;DHT22;7666;50.920;4.628;2023-02-21T12:53:18;9.00;99.90
15131;DHT22;7666;50.920;4.628;2023-02-21T12:56:15;9.00;99.90
15131;DHT22;7666;50.920;4.628;2023-02-21T12:59:19;9.10;99.90
15131;DHT22;7666;50.920;4.628;2023-02-21T13:02:24;9.10;99.90
15131;DHT22;7666;50.920;4.628;2023-02-21T13:05:18;9.20;99.90
15131;DHT22;7666;50.920;4.628;2023-02-21T13:08:16;9.30;99.90
15131;DHT22;7666;50.920;4.628;2023-02-21T13:14:00;9.50;99.90
15131;DHT22;7666;50.920;4.628;2023-02-21T13:16:47;9.50;99.90
15131;DHT22;7666;50.920;4.628;2023-02-21T13:19:43;9.50;99.90
15131;DHT22;7666;50.920;4.628;2023-02-21T13:29:29;9.50;99.90
15131;DHT22;7666;50.920;4.628;2023-02-21T13:32:18;9.60;99.90
15131;DHT22;7666;50.920;4.628;2023-02-21T13:35:08;9.60;99.90
15131;DHT22;7666;50.920;4.628;2023-02-21T13:37:55;9.60;99.90
15131;DHT22;7666;50.920;4.628;2023-02-21T13:40:52;9.70;99.90
15131;DHT22;7666;50.920;4.628;2023-02-21T13:43:46;9.70;99.90
15131;DHT22;7666;50.920;4.628;2023-02-21T13:52:35;9.60;99.90
15131;DHT22;7666;50.920;4.628;2023-02-21T13:55:36;9.60;99.90
15131;DHT22;7666;50.920;4.628;2023-02-21T13:58:27;9.60;99.90
15131;DHT22;7666;50.920;4.628;2023-02-21T14:07:44;9.80;99.90
15131;DHT22;7666;50.920;4.628;2023-02-21T14:10:58;9.90;99.90
15131;DHT22;7666;50.920;4.628;2023-02-21T14:13:55;9.80;99.90
15131;DHT22;7666;50.920;4.628;2023-02-21T14:16:53;9.70;99.90
15131;DHT22;7666;50.920;4.628;2023-02-21T14:19:48;9.60;99.90
15131;DHT22;7666;50.920;4.628;2023-02-21T14:22:36;9.70;99.90
15131;DHT22;7666;50.920;4.628;2023-02-21T14:25:24;9.70;99.90
15131;DHT22;7666;50.920;4.628;2023-02-21T14:31:54;9.80;99.90
15131;DHT22;7666;50.920;4.628;2023-02-21T14:37:37;9.80;99.90
15131;DHT22;7666;50.920;4.628;2023-02-21T14:40:43;9.90;99.90
15131;DHT22;7666;50.920;4.628;2023-02-21T15:03:48;9.90;99.90
15131;DHT22;7666;50.920;4.628;2023-02-21T15:06:18;9.90;99.90
15131;DHT22;7666;50.920;4.628;2023-02-21T15:09:16;9.90;99.90
15131;DHT22;7666;50.920;4.628;2023-02-21T15:12:16;9.90;99.90
15131;DHT22;7666;50.920;4.628;2023-02-21T15:15:02;9.80;99.90
15131;DHT22;7666;50.920;4.628;2023-02-21T15:18:25;9.90;99.90
15131;DHT22;7666;50.920;4.628;2023-02-21T15:21:15;9.90;99.90
15131;DHT22;7666;50.920;4.628;2023-02-21T15:24:14;9.80;99.90
15131;DHT22;7666;50.920;4.628;2023-02-21T15:27:11;9.70;99.90
15131;DHT22;7666;50.920;4.628;2023-02-21T15:35:49;9.80;99.90
15131;DHT22;7666;50.920;4.628;2023-02-21T15:39:22;9.80;99.90
15131;DHT22;7666;50.920;4.628;2023-02-21T15:41:50;9.80;99.90
15131;DHT22;7666;50.920;4.628;2023-02-21T15:44:42;9.80;99.90
15131;DHT22;7666;50.920;4.628;2023-02-21T15:47:32;9.80;99.90
15131;DHT22;7666;50.920;4.628;2023-02-21T15:50:39;9.80;99.90
15131;DHT22;7666;50.920;4.628;2023-02-21T15:53:28;9.80;99.90
15131;DHT22;7666;50.920;4.628;2023-02-21T15:56:21;9.80;99.90
15131;DHT22;7666;50.920;4.628;2023-02-21T16:02:11;9.70;99.90
15131;DHT22;7666;50.920;4.628;2023-02-21T16:04:58;9.60;99.90
15131;DHT22;7666;50.920;4.628;2023-02-21T16:07:44;9.50;99.90
15131;DHT22;7666;50.920;4.628;2023-02-21T16:10:35;9.40;99.90
15131;DHT22;7666;50.920;4.628;2023-02-21T16:13:21;9.30;99.90
15131;DHT22;7666;50.920;4.628;2023-02-21T16:16:08;9.20;99.90
15131;DHT22;7666;50.920;4.628;2023-02-21T16:18:55;9.10;99.90
15131;DHT22;7666;50.920;4.628;2023-02-21T16:21:42;9.10;99.90
15131;DHT22;7666;50.920;4.628;2023-02-21T16:24:31;9.20;99.90
15131;DHT22;7666;50.920;4.628;2023-02-21T16:27:17;9.20;99.90
15131;DHT22;7666;50.920;4.628;2023-02-21T16:30:05;9.20;99.90
15131;DHT22;7666;50.920;4.628;2023-02-21T16:32:53;9.10;99.90
15131;DHT22;7666;50.920;4.628;2023-02-21T16:35:40;9.10;99.90
15131;DHT22;7666;50.920;4.628;2023-02-21T16:38:26;9.00;99.90
15131;DHT22;7666;50.920;4.628;2023-02-21T16:41:13;9.00;99.90
15131;DHT22;7666;50.920;4.628;2023-02-21T16:43:59;9.00;99.90
15131;DHT22;7666;50.920;4.628;2023-02-21T16:46:45;9.00;99.90
15131;DHT22;7666;50.920;4.628;2023-02-21T16:49:31;9.00;99.90
15131;DHT22;7666;50.920;4.628;2023-02-21T16:52:18;9.00;99.90
15131;DHT22;7666;50.920;4.628;2023-02-21T16:55:04;9.10;99.90
15131;DHT22;7666;50.920;4.628;2023-02-21T16:57:52;9.10;99.90
15131;DHT22;7666;50.920;4.628;2023-02-21T17:00:38;9.10;99.90
15131;DHT22;7666;50.920;4.628;2023-02-21T17:03:24;9.10;99.90
15131;DHT22;7666;50.920;4.628;2023-02-21T17:06:16;9.00;99.90
15131;DHT22;7666;50.920;4.628;2023-02-21T17:09:03;9.00;99.90
15131;DHT22;7666;50.920;4.628;2023-02-21T17:11:49;8.90;99.90
15131;DHT22;7666;50.920;4.628;2023-02-21T17:14:35;8.90;99.90
15131;DHT22;7666;50.920;4.628;2023-02-21T17:17:21;8.80;99.90
15131;DHT22;7666;50.920;4.628;2023-02-21T17:20:10;8.80;99.90
15131;DHT22;7666;50.920;4.628;2023-02-21T17:22:59;8.80;99.90
15131;DHT22;7666;50.920;4.628;2023-02-21T17:25:46;8.80;99.90
15131;DHT22;7666;50.920;4.628;2023-02-21T17:28:32;8.80;99.90
15131;DHT22;7666;50.920;4.628;2023-02-21T17:31:19;8.80;99.90
15131;DHT22;7666;50.920;4.628;2023-02-21T17:34:05;8.80;99.90
15131;DHT22;7666;50.920;4.628;2023-02-21T17:36:51;8.70;99.90
15131;DHT22;7666;50.920;4.628;2023-02-21T17:39:37;8.60;99.90
15131;DHT22;7666;50.920;4.628;2023-02-21T17:42:23;8.50;99.90
15131;DHT22;7666;50.920;4.628;2023-02-21T17:45:11;8.40;99.90
15131;DHT22;7666;50.920;4.628;2023-02-21T17:47:57;8.20;99.90
15131;DHT22;7666;50.920;4.628;2023-02-21T17:50:43;8.10;99.90
15131;DHT22;7666;50.920;4.628;2023-02-21T17:53:28;8.00;99.90
15131;DHT22;7666;50.920;4.628;2023-02-21T17:56:20;8.00;99.90
15131;DHT22;7666;50.920;4.628;2023-02-21T17:59:06;7.90;99.90
15131;DHT22;7666;50.920;4.628;2023-02-21T18:01:53;7.80;99.90
15131;DHT22;7666;50.920;4.628;2023-02-21T18:04:39;7.70;99.90
15131;DHT22;7666;50.920;4.628;2023-02-21T18:07:26;7.60;99.90
15131;DHT22;7666;50.920;4.628;2023-02-21T18:10:19;7.40;99.90
15131;DHT22;7666;50.920;4.628;2023-02-21T18:13:05;7.30;99.90
15131;DHT22;7666;50.920;4.628;2023-02-21T18:15:51;7.20;99.90
15131;DHT22;7666;50.920;4.628;2023-02-21T18:18:37;7.10;99.90
15131;DHT22;7666;50.920;4.628;2023-02-21T18:21:23;7.10;99.90
15131;DHT22;7666;50.920;4.628;2023-02-21T18:24:10;7.00;99.90
15131;DHT22;7666;50.920;4.628;2023-02-21T18:26:56;6.90;99.90
15131;DHT22;7666;50.920;4.628;2023-02-21T18:29:42;6.80;99.90
15131;DHT22;7666;50.920;4.628;2023-02-21T18:32:29;6.70;99.90
15131;DHT22;7666;50.920;4.628;2023-02-21T18:35:15;6.50;99.90
15131;DHT22;7666;50.920;4.628;2023-02-21T18:38:02;6.40;99.90
15131;DHT22;7666;50.920;4.628;2023-02-21T18:40:49;6.40;99.90
15131;DHT22;7666;50.920;4.628;2023-02-21T18:43:35;6.30;99.90
15131;DHT22;7666;50.920;4.628;2023-02-21T18:46:21;6.20;99.90
15131;DHT22;7666;50.920;4.628;2023-02-21T18:49:09;6.10;99.90
15131;DHT22;7666;50.920;4.628;2023-02-21T18:51:55;6.10;99.90
15131;DHT22;7666;50.920;4.628;2023-02-21T18:54:46;6.00;99.90
15131;DHT22;7666;50.920;4.628;2023-02-21T18:57:33;5.80;99.90
15131;DHT22;7666;50.920;4.628;2023-02-21T19:00:20;5.70;99.90
15131;DHT22;7666;50.920;4.628;2023-02-21T19:03:07;5.70;99.90
15131;DHT22;7666;50.920;4.628;2023-02-21T19:05:54;5.70;99.90
15131;DHT22;7666;50.920;4.628;2023-02-21T19:08:40;5.70;99.90
15131;DHT22;7666;50.920;4.628;2023-02-21T19:11:26;5.70;99.90
15131;DHT22;7666;50.920;4.628;2023-02-21T19:14:12;5.80;99.90
15131;DHT22;7666;50.920;4.628;2023-02-21T19:16:58;5.80;99.90
15131;DHT22;7666;50.920;4.628;2023-02-21T19:19:44;5.80;99.90
15131;DHT22;7666;50.920;4.628;2023-02-21T19:22:30;5.80;99.90
15131;DHT22;7666;50.920;4.628;2023-02-21T19:25:17;5.70;99.90
15131;DHT22;7666;50.920;4.628;2023-02-21T19:28:03;5.60;99.90
15131;DHT22;7666;50.920;4.628;2023-02-21T19:30:51;5.40;99.90
15131;DHT22;7666;50.920;4.628;2023-02-21T19:33:37;5.20;99.90
15131;DHT22;7666;50.920;4.628;2023-02-21T19:36:23;5.10;99.90
15131;DHT22;7666;50.920;4.628;2023-02-21T19:39:09;5.10;99.90
15131;DHT22;7666;50.920;4.628;2023-02-21T19:41:56;5.10;99.90
15131;DHT22;7666;50.920;4.628;2023-02-21T19:44:42;5.20;99.90
15131;DHT22;7666;50.920;4.628;2023-02-21T19:47:28;5.20;99.90
15131;DHT22;7666;50.920;4.628;2023-02-21T19:50:15;5.20;99.90
15131;DHT22;7666;50.920;4.628;2023-02-21T19:53:01;5.10;99.90
15131;DHT22;7666;50.920;4.628;2023-02-21T19:55:47;5.10;99.90
15131;DHT22;7666;50.920;4.628;2023-02-21T19:58:33;5.10;99.90
15131;DHT22;7666;50.920;4.628;2023-02-21T20:01:19;5.10;99.90
15131;DHT22;7666;50.920;4.628;2023-02-21T20:04:06;4.90;99.90
15131;DHT22;7666;50.920;4.628;2023-02-21T20:06:54;4.70;99.90
15131;DHT22;7666;50.920;4.628;2023-02-21T20:09:40;4.60;99.90
15131;DHT22;7666;50.920;4.628;2023-02-21T20:12:26;4.50;99.90
15131;DHT22;7666;50.920;4.628;2023-02-21T20:15:12;4.40;99.90
15131;DHT22;7666;50.920;4.628;2023-02-21T20:17:58;4.30;99.90
15131;DHT22;7666;50.920;4.628;2023-02-21T20:20:44;4.20;99.90
15131;DHT22;7666;50.920;4.628;2023-02-21T20:23:31;4.10;99.90
15131;DHT22;7666;50.920;4.628;2023-02-21T20:26:18;4.20;99.90
15131;DHT22;7666;50.920;4.628;2023-02-21T20:29:07;4.40;99.90
15131;DHT22;7666;50.920;4.628;2023-02-21T20:31:54;4.40;99.90
15131;DHT22;7666;50.920;4.628;2023-02-21T20:34:40;4.40;99.90
15131;DHT22;7666;50.920;4.628;2023-02-21T20:37:26;4.50;99.90
15131;DHT22;7666;50.920;4.628;2023-02-21T20:40:15;4.50;99.90